Placentia, CA

1:36 PM PST on February 14, 2016 (GMT -0800)
Imperial Hwy/YL Blvd | | Change Station
CLOSE
Current Station
Personal Weather Station
Location: YORBA LINDA, CA
Elevation: 370 ft
Nearby Weather Stations
Active Advisory: Wind Advisory

Elev 370 ft 33.89 °N, 117.82 °W | Updated 1 minute ago

Clear
Clear
82.8 °F
Feels Like 81 °F
N
1.0
Wind Variable Wind from WSW
Gusts 4.0 mph

Today
High -- | Low -- °F
--% Chance of Precip.
Yesterday
High -- | Low -- °F
Precip. -- in
Pressure 29.99 in
Visibility 6.0 miles
Clouds Clear
Heat Index 81 °F
Dew Point 50 °F
Humidity 32%
Rainfall 0.00 in
Snow Depth Not available.
6:37 AM 5:34 PM
Waxing Crescent, 45% visible
METAR KFUL 142053Z 00000KT 6SM HZ CLR 26/08 A2999 RMK AO2 SLP155 T02610083 58019
Pressure 29.99 in
Visibility 6.0 miles
Clouds Clear
Heat Index 81 °F
Dew Point 50 °F
Humidity 32%
Rainfall 0.00 in
Snow Depth Not available.
6:37 AM 5:34 PM
Waxing Crescent, 45% visible
METAR KFUL 142053Z 00000KT 6SM HZ CLR 26/08 A2999 RMK AO2 SLP155 T02610083 58019

10-Day Weather Forecast

Almanac

Astronomy

Feb. 14, 2016 Rise Set
Actual Time
Civil Twilight
Nautical Twilight
Astronomical Twilight
Moon
Length of Visible Light
Length of Day
Tomorrow will be .
, % of the Moon is Illuminated

Today's Extremes

State Highs State Lows

Community

WunderPhotos

Upload Photos

1,892,890 photos uploaded!

WunderBlog® & News

Nearby

Air Quality

  Air Quality AQ Index Pollutant
Not available.

Snow Depth

Station Depth Elevation

Earthquake Activity

City Distance Mag. Time & Date
Minimum magnitude displayed is 2.5.

Coastal Water Temperatures

Place Temperature

Stations

Nearby Weather Stations

Station Location Temp. Windchill Dew Point Humidity Wind Precip. Elev Updated Type
                   

Watches & Warnings

Wind Advisory
Issued: 12:57 PM PST Feb. 14, 2016 – National Weather Service

... Wind Advisory remains in effect from 6 PM this evening to 2 PM
PST Monday...

* winds... areas of northeast winds 20 to 30 mph with gusts to 50
mph. Isolated gusts to 60 mph possible below the Cajon Pass
and near the coastal foothills of the Santa Ana Mountains.

* Timing... winds increasing overnight with the strongest winds
late tonight into Monday morning... weakening Monday afternoon.

* Location... near coastal foothills and below passes and canyons.

* Visibility... locally reduced in blowing dust.

* Impacts... the winds will make driving difficult... especially for
motorists in high profile vehicles. Watch for broken tree limbs
and other debris.

Precautionary/preparedness actions...

A Wind Advisory means that winds of 35 mph are expected. Winds
this strong can make driving difficult... especially for high
profile vehicles. Use extra caution.